sensor_id;sensor_type;location;lat;lon;timestamp;P1;durP1;ratioP1;P2;durP2;ratioP2
53775;SDS011;44276;49.534;6.378;2022-07-22T00:01:59;22.20;;;14.73;;
53775;SDS011;44276;49.534;6.378;2022-07-22T00:04:27;17.70;;;12.40;;
53775;SDS011;44276;49.534;6.378;2022-07-22T00:06:56;22.60;;;14.63;;
53775;SDS011;44276;49.534;6.378;2022-07-22T00:09:24;19.10;;;12.68;;
53775;SDS011;44276;49.534;6.378;2022-07-22T00:11:55;21.90;;;13.38;;
53775;SDS011;44276;49.534;6.378;2022-07-22T00:14:23;19.67;;;13.23;;
53775;SDS011;44276;49.534;6.378;2022-07-22T00:16:53;22.50;;;14.30;;
53775;SDS011;44276;49.534;6.378;2022-07-22T00:19:21;24.85;;;14.32;;
53775;SDS011;44276;49.534;6.378;2022-07-22T00:21:50;22.42;;;14.95;;
53775;SDS011;44276;49.534;6.378;2022-07-22T00:24:19;36.17;;;15.95;;
53775;SDS011;44276;49.534;6.378;2022-07-22T00:26:48;21.45;;;13.32;;
53775;SDS011;44276;49.534;6.378;2022-07-22T00:29:16;30.95;;;16.45;;
53775;SDS011;44276;49.534;6.378;2022-07-22T00:31:45;25.23;;;16.73;;
53775;SDS011;44276;49.534;6.378;2022-07-22T00:34:15;29.65;;;16.85;;
53775;SDS011;44276;49.534;6.378;2022-07-22T00:36:43;27.88;;;16.70;;
53775;SDS011;44276;49.534;6.378;2022-07-22T00:39:11;27.35;;;17.15;;
53775;SDS011;44276;49.534;6.378;2022-07-22T00:41:41;22.27;;;16.08;;
53775;SDS011;44276;49.534;6.378;2022-07-22T00:44:09;26.70;;;15.80;;
53775;SDS011;44276;49.534;6.378;2022-07-22T00:46:39;22.20;;;14.73;;
53775;SDS011;44276;49.534;6.378;2022-07-22T00:49:07;19.10;;;14.57;;
53775;SDS011;44276;49.534;6.378;2022-07-22T00:51:38;24.55;;;16.13;;
53775;SDS011;44276;49.534;6.378;2022-07-22T00:54:06;29.70;;;15.65;;
53775;SDS011;44276;49.534;6.378;2022-07-22T00:56:36;27.75;;;18.60;;
53775;SDS011;44276;49.534;6.378;2022-07-22T00:59:06;27.02;;;17.75;;
53775;SDS011;44276;49.534;6.378;2022-07-22T01:01:37;28.08;;;17.45;;
53775;SDS011;44276;49.534;6.378;2022-07-22T01:04:06;28.80;;;17.90;;
53775;SDS011;44276;49.534;6.378;2022-07-22T01:06:34;26.17;;;17.40;;
53775;SDS011;44276;49.534;6.378;2022-07-22T01:09:04;29.95;;;18.73;;
53775;SDS011;44276;49.534;6.378;2022-07-22T01:11:32;31.33;;;18.83;;
53775;SDS011;44276;49.534;6.378;2022-07-22T01:14:00;27.50;;;18.23;;
53775;SDS011;44276;49.534;6.378;2022-07-22T01:16:29;34.28;;;18.90;;
53775;SDS011;44276;49.534;6.378;2022-07-22T01:18:57;34.08;;;18.33;;
53775;SDS011;44276;49.534;6.378;2022-07-22T01:21:27;32.40;;;17.95;;
53775;SDS011;44276;49.534;6.378;2022-07-22T01:23:56;28.45;;;16.85;;
53775;SDS011;44276;49.534;6.378;2022-07-22T01:26:24;35.00;;;19.25;;
53775;SDS011;44276;49.534;6.378;2022-07-22T01:28:52;25.02;;;16.92;;
53775;SDS011;44276;49.534;6.378;2022-07-22T01:31:21;26.98;;;17.35;;
53775;SDS011;44276;49.534;6.378;2022-07-22T01:33:49;31.15;;;18.27;;
53775;SDS011;44276;49.534;6.378;2022-07-22T01:36:18;31.95;;;17.02;;
53775;SDS011;44276;49.534;6.378;2022-07-22T01:38:47;34.45;;;17.73;;
53775;SDS011;44276;49.534;6.378;2022-07-22T01:41:16;29.88;;;16.80;;
53775;SDS011;44276;49.534;6.378;2022-07-22T01:43:44;32.65;;;18.08;;
53775;SDS011;44276;49.534;6.378;2022-07-22T01:46:12;28.80;;;17.90;;
53775;SDS011;44276;49.534;6.378;2022-07-22T01:48:41;27.42;;;17.25;;
53775;SDS011;44276;49.534;6.378;2022-07-22T01:51:09;35.55;;;20.50;;
53775;SDS011;44276;49.534;6.378;2022-07-22T01:53:37;27.40;;;18.00;;
53775;SDS011;44276;49.534;6.378;2022-07-22T01:56:07;28.48;;;18.90;;
53775;SDS011;44276;49.534;6.378;2022-07-22T01:58:35;35.03;;;20.48;;
53775;SDS011;44276;49.534;6.378;2022-07-22T02:01:06;34.55;;;20.55;;
53775;SDS011;44276;49.534;6.378;2022-07-22T02:03:35;34.72;;;18.55;;
53775;SDS011;44276;49.534;6.378;2022-07-22T02:06:03;33.58;;;19.55;;
53775;SDS011;44276;49.534;6.378;2022-07-22T02:08:32;34.92;;;21.05;;
53775;SDS011;44276;49.534;6.378;2022-07-22T02:11:01;42.58;;;22.20;;
53775;SDS011;44276;49.534;6.378;2022-07-22T02:13:30;39.47;;;22.63;;
53775;SDS011;44276;49.534;6.378;2022-07-22T02:15:59;39.53;;;21.55;;
53775;SDS011;44276;49.534;6.378;2022-07-22T02:18:28;32.13;;;19.23;;
53775;SDS011;44276;49.534;6.378;2022-07-22T02:20:57;29.38;;;18.38;;
53775;SDS011;44276;49.534;6.378;2022-07-22T02:23:25;37.28;;;19.13;;
53775;SDS011;44276;49.534;6.378;2022-07-22T02:25:53;33.40;;;19.35;;
53775;SDS011;44276;49.534;6.378;2022-07-22T02:28:21;27.98;;;18.23;;
53775;SDS011;44276;49.534;6.378;2022-07-22T02:30:51;32.90;;;18.83;;
53775;SDS011;44276;49.534;6.378;2022-07-22T02:33:19;31.10;;;18.45;;
53775;SDS011;44276;49.534;6.378;2022-07-22T02:35:47;37.03;;;21.98;;
53775;SDS011;44276;49.534;6.378;2022-07-22T02:38:16;42.22;;;21.55;;
53775;SDS011;44276;49.534;6.378;2022-07-22T02:40:45;48.05;;;23.00;;
53775;SDS011;44276;49.534;6.378;2022-07-22T02:43:13;38.38;;;20.45;;
53775;SDS011;44276;49.534;6.378;2022-07-22T02:45:41;40.03;;;21.80;;
53775;SDS011;44276;49.534;6.378;2022-07-22T02:48:11;39.47;;;20.98;;
53775;SDS011;44276;49.534;6.378;2022-07-22T02:50:44;40.38;;;20.27;;
53775;SDS011;44276;49.534;6.378;2022-07-22T02:53:13;34.25;;;20.77;;
53775;SDS011;44276;49.534;6.378;2022-07-22T02:55:41;39.28;;;20.98;;
53775;SDS011;44276;49.534;6.378;2022-07-22T02:58:09;48.03;;;22.25;;
53775;SDS011;44276;49.534;6.378;2022-07-22T03:00:38;53.90;;;23.48;;
53775;SDS011;44276;49.534;6.378;2022-07-22T03:03:06;35.67;;;20.80;;
53775;SDS011;44276;49.534;6.378;2022-07-22T03:05:36;37.78;;;20.25;;
53775;SDS011;44276;49.534;6.378;2022-07-22T03:08:04;32.60;;;18.40;;
53775;SDS011;44276;49.534;6.378;2022-07-22T03:10:32;28.35;;;17.52;;
53775;SDS011;44276;49.534;6.378;2022-07-22T03:13:00;28.95;;;16.58;;
53775;SDS011;44276;49.534;6.378;2022-07-22T03:15:28;32.50;;;18.30;;
53775;SDS011;44276;49.534;6.378;2022-07-22T03:17:56;36.97;;;19.98;;
53775;SDS011;44276;49.534;6.378;2022-07-22T03:20:24;36.72;;;20.30;;
53775;SDS011;44276;49.534;6.378;2022-07-22T03:22:54;40.95;;;20.95;;
53775;SDS011;44276;49.534;6.378;2022-07-22T03:25:22;34.55;;;20.58;;
53775;SDS011;44276;49.534;6.378;2022-07-22T03:27:50;33.75;;;20.48;;
53775;SDS011;44276;49.534;6.378;2022-07-22T03:30:18;38.03;;;20.33;;
53775;SDS011;44276;49.534;6.378;2022-07-22T03:32:47;41.58;;;22.38;;
53775;SDS011;44276;49.534;6.378;2022-07-22T03:35:17;33.70;;;20.65;;
53775;SDS011;44276;49.534;6.378;2022-07-22T03:37:45;37.95;;;20.92;;
53775;SDS011;44276;49.534;6.378;2022-07-22T03:40:15;35.00;;;20.85;;
53775;SDS011;44276;49.534;6.378;2022-07-22T03:42:43;38.63;;;21.27;;
53775;SDS011;44276;49.534;6.378;2022-07-22T03:45:12;45.08;;;23.02;;
53775;SDS011;44276;49.534;6.378;2022-07-22T03:47:41;32.08;;;19.23;;
53775;SDS011;44276;49.534;6.378;2022-07-22T03:50:09;30.77;;;18.25;;
53775;SDS011;44276;49.534;6.378;2022-07-22T03:52:37;32.63;;;17.83;;
53775;SDS011;44276;49.534;6.378;2022-07-22T03:55:06;38.55;;;18.70;;
53775;SDS011;44276;49.534;6.378;2022-07-22T03:57:36;41.05;;;19.98;;
53775;SDS011;44276;49.534;6.378;2022-07-22T04:00:04;41.70;;;19.50;;
53775;SDS011;44276;49.534;6.378;2022-07-22T04:02:35;33.35;;;18.17;;
53775;SDS011;44276;49.534;6.378;2022-07-22T04:05:04;35.58;;;18.40;;
53775;SDS011;44276;49.534;6.378;2022-07-22T04:07:33;32.08;;;17.45;;
53775;SDS011;44276;49.534;6.378;2022-07-22T04:10:01;32.10;;;17.48;;
53775;SDS011;44276;49.534;6.378;2022-07-22T04:12:33;31.88;;;18.25;;
53775;SDS011;44276;49.534;6.378;2022-07-22T04:15:04;29.70;;;16.63;;
53775;SDS011;44276;49.534;6.378;2022-07-22T04:17:34;32.08;;;16.13;;
53775;SDS011;44276;49.534;6.378;2022-07-22T04:20:03;35.38;;;19.40;;
53775;SDS011;44276;49.534;6.378;2022-07-22T04:22:32;36.25;;;19.08;;
53775;SDS011;44276;49.534;6.378;2022-07-22T04:25:01;30.40;;;17.10;;
53775;SDS011;44276;49.534;6.378;2022-07-22T04:27:29;37.08;;;19.15;;
53775;SDS011;44276;49.534;6.378;2022-07-22T04:29:58;38.33;;;19.73;;
53775;SDS011;44276;49.534;6.378;2022-07-22T04:32:27;31.60;;;19.73;;
53775;SDS011;44276;49.534;6.378;2022-07-22T04:34:55;46.78;;;18.88;;
53775;SDS011;44276;49.534;6.378;2022-07-22T04:37:23;32.33;;;20.33;;
53775;SDS011;44276;49.534;6.378;2022-07-22T04:39:52;31.25;;;19.00;;
53775;SDS011;44276;49.534;6.378;2022-07-22T04:42:20;31.13;;;17.08;;
53775;SDS011;44276;49.534;6.378;2022-07-22T04:44:48;38.30;;;19.02;;
53775;SDS011;44276;49.534;6.378;2022-07-22T04:47:18;35.55;;;19.27;;
53775;SDS011;44276;49.534;6.378;2022-07-22T04:49:46;28.85;;;17.73;;
53775;SDS011;44276;49.534;6.378;2022-07-22T04:52:14;35.50;;;17.38;;
53775;SDS011;44276;49.534;6.378;2022-07-22T04:54:45;23.48;;;15.88;;
53775;SDS011;44276;49.534;6.378;2022-07-22T04:57:13;33.97;;;16.80;;
53775;SDS011;44276;49.534;6.378;2022-07-22T04:59:42;32.08;;;16.10;;
53775;SDS011;44276;49.534;6.378;2022-07-22T05:02:11;27.48;;;16.17;;
53775;SDS011;44276;49.534;6.378;2022-07-22T05:04:40;25.48;;;16.63;;
53775;SDS011;44276;49.534;6.378;2022-07-22T05:07:08;27.52;;;15.15;;
53775;SDS011;44276;49.534;6.378;2022-07-22T05:09:36;19.55;;;13.82;;
53775;SDS011;44276;49.534;6.378;2022-07-22T05:12:05;23.20;;;15.10;;
53775;SDS011;44276;49.534;6.378;2022-07-22T05:14:34;25.50;;;15.02;;
53775;SDS011;44276;49.534;6.378;2022-07-22T05:17:02;20.65;;;14.95;;
53775;SDS011;44276;49.534;6.378;2022-07-22T05:19:30;20.55;;;11.70;;
53775;SDS011;44276;49.534;6.378;2022-07-22T05:22:00;21.50;;;12.45;;
53775;SDS011;44276;49.534;6.378;2022-07-22T05:24:28;18.67;;;10.05;;
53775;SDS011;44276;49.534;6.378;2022-07-22T05:26:56;14.30;;;9.98;;
53775;SDS011;44276;49.534;6.378;2022-07-22T05:29:24;14.80;;;9.05;;
53775;SDS011;44276;49.534;6.378;2022-07-22T05:31:52;14.45;;;9.50;;
53775;SDS011;44276;49.534;6.378;2022-07-22T05:34:20;18.13;;;9.35;;
53775;SDS011;44276;49.534;6.378;2022-07-22T05:36:48;14.32;;;8.95;;
53775;SDS011;44276;49.534;6.378;2022-07-22T05:39:18;12.60;;;8.15;;
53775;SDS011;44276;49.534;6.378;2022-07-22T05:41:46;12.38;;;7.50;;
53775;SDS011;44276;49.534;6.378;2022-07-22T05:44:20;11.48;;;7.45;;
53775;SDS011;44276;49.534;6.378;2022-07-22T05:46:48;12.40;;;6.78;;
53775;SDS011;44276;49.534;6.378;2022-07-22T05:49:16;13.27;;;7.22;;
53775;SDS011;44276;49.534;6.378;2022-07-22T05:51:45;9.95;;;6.95;;
53775;SDS011;44276;49.534;6.378;2022-07-22T05:54:14;10.38;;;7.10;;
53775;SDS011;44276;49.534;6.378;2022-07-22T05:56:43;15.73;;;7.30;;
53775;SDS011;44276;49.534;6.378;2022-07-22T05:59:11;11.40;;;7.60;;
53775;SDS011;44276;49.534;6.378;2022-07-22T06:01:39;8.82;;;6.40;;
53775;SDS011;44276;49.534;6.378;2022-07-22T06:04:07;10.13;;;6.40;;
53775;SDS011;44276;49.534;6.378;2022-07-22T06:06:36;8.93;;;6.72;;
53775;SDS011;44276;49.534;6.378;2022-07-22T06:09:05;12.60;;;6.38;;
53775;SDS011;44276;49.534;6.378;2022-07-22T06:11:33;11.02;;;7.28;;
53775;SDS011;44276;49.534;6.378;2022-07-22T06:14:02;7.30;;;5.43;;
53775;SDS011;44276;49.534;6.378;2022-07-22T06:16:31;9.35;;;6.32;;
53775;SDS011;44276;49.534;6.378;2022-07-22T06:19:00;9.10;;;6.20;;
53775;SDS011;44276;49.534;6.378;2022-07-22T06:21:29;11.20;;;6.57;;
53775;SDS011;44276;49.534;6.378;2022-07-22T06:23:58;9.15;;;5.65;;
53775;SDS011;44276;49.534;6.378;2022-07-22T06:26:26;14.00;;;6.03;;
53775;SDS011;44276;49.534;6.378;2022-07-22T06:28:54;11.45;;;6.43;;
53775;SDS011;44276;49.534;6.378;2022-07-22T06:31:24;7.82;;;5.10;;
53775;SDS011;44276;49.534;6.378;2022-07-22T06:33:53;10.60;;;5.15;;
53775;SDS011;44276;49.534;6.378;2022-07-22T06:36:21;8.98;;;5.05;;
53775;SDS011;44276;49.534;6.378;2022-07-22T06:38:49;7.63;;;4.50;;
53775;SDS011;44276;49.534;6.378;2022-07-22T06:41:17;11.13;;;5.63;;
53775;SDS011;44276;49.534;6.378;2022-07-22T06:43:46;7.63;;;5.40;;
53775;SDS011;44276;49.534;6.378;2022-07-22T06:46:14;8.20;;;5.32;;
53775;SDS011;44276;49.534;6.378;2022-07-22T06:48:44;7.93;;;6.10;;
53775;SDS011;44276;49.534;6.378;2022-07-22T06:51:13;9.00;;;5.45;;
53775;SDS011;44276;49.534;6.378;2022-07-22T06:53:42;8.40;;;5.60;;
53775;SDS011;44276;49.534;6.378;2022-07-22T06:56:14;8.45;;;5.40;;
53775;SDS011;44276;49.534;6.378;2022-07-22T06:58:42;5.47;;;4.35;;
53775;SDS011;44276;49.534;6.378;2022-07-22T07:01:11;15.55;;;5.68;;
53775;SDS011;44276;49.534;6.378;2022-07-22T07:03:39;10.32;;;6.18;;
53775;SDS011;44276;49.534;6.378;2022-07-22T07:06:10;8.98;;;4.95;;
53775;SDS011;44276;49.534;6.378;2022-07-22T07:08:40;8.60;;;5.57;;
53775;SDS011;44276;49.534;6.378;2022-07-22T07:11:09;7.45;;;5.50;;
53775;SDS011;44276;49.534;6.378;2022-07-22T07:13:37;6.82;;;5.45;;
53775;SDS011;44276;49.534;6.378;2022-07-22T07:16:05;6.68;;;5.07;;
53775;SDS011;44276;49.534;6.378;2022-07-22T07:18:34;11.18;;;4.88;;
53775;SDS011;44276;49.534;6.378;2022-07-22T07:21:03;7.25;;;4.60;;
53775;SDS011;44276;49.534;6.378;2022-07-22T07:23:35;8.77;;;5.82;;
53775;SDS011;44276;49.534;6.378;2022-07-22T07:26:04;7.50;;;4.78;;
53775;SDS011;44276;49.534;6.378;2022-07-22T07:28:32;9.20;;;5.40;;
53775;SDS011;44276;49.534;6.378;2022-07-22T07:31:00;5.40;;;4.00;;
53775;SDS011;44276;49.534;6.378;2022-07-22T07:33:29;9.57;;;4.60;;
53775;SDS011;44276;49.534;6.378;2022-07-22T07:35:57;6.05;;;4.70;;
53775;SDS011;44276;49.534;6.378;2022-07-22T07:38:25;11.50;;;5.07;;
53775;SDS011;44276;49.534;6.378;2022-07-22T07:40:55;9.18;;;5.60;;
53775;SDS011;44276;49.534;6.378;2022-07-22T07:43:23;6.80;;;5.05;;
53775;SDS011;44276;49.534;6.378;2022-07-22T07:45:51;6.13;;;4.28;;
53775;SDS011;44276;49.534;6.378;2022-07-22T07:48:20;8.95;;;4.90;;
53775;SDS011;44276;49.534;6.378;2022-07-22T07:50:48;8.05;;;4.65;;
53775;SDS011;44276;49.534;6.378;2022-07-22T07:53:17;7.15;;;5.25;;
53775;SDS011;44276;49.534;6.378;2022-07-22T07:55:45;5.45;;;4.45;;
53775;SDS011;44276;49.534;6.378;2022-07-22T07:58:15;6.75;;;3.70;;
53775;SDS011;44276;49.534;6.378;2022-07-22T08:00:43;6.45;;;3.97;;
53775;SDS011;44276;49.534;6.378;2022-07-22T08:03:12;11.10;;;4.80;;
53775;SDS011;44276;49.534;6.378;2022-07-22T08:05:41;5.57;;;4.40;;
53775;SDS011;44276;49.534;6.378;2022-07-22T08:08:10;4.38;;;3.97;;
53775;SDS011;44276;49.534;6.378;2022-07-22T08:10:40;6.22;;;4.68;;
53775;SDS011;44276;49.534;6.378;2022-07-22T08:13:28;4.43;;;3.92;;
53775;SDS011;44276;49.534;6.378;2022-07-22T08:15:56;5.82;;;4.03;;
53775;SDS011;44276;49.534;6.378;2022-07-22T08:18:25;11.45;;;4.82;;
53775;SDS011;44276;49.534;6.378;2022-07-22T08:20:54;6.60;;;4.22;;
53775;SDS011;44276;49.534;6.378;2022-07-22T08:23:26;7.68;;;3.72;;
53775;SDS011;44276;49.534;6.378;2022-07-22T08:25:54;5.35;;;3.97;;
53775;SDS011;44276;49.534;6.378;2022-07-22T08:28:23;5.03;;;3.75;;
53775;SDS011;44276;49.534;6.378;2022-07-22T08:30:52;7.03;;;4.18;;
53775;SDS011;44276;49.534;6.378;2022-07-22T08:33:20;8.15;;;4.20;;
53775;SDS011;44276;49.534;6.378;2022-07-22T08:35:49;6.57;;;3.83;;
53775;SDS011;44276;49.534;6.378;2022-07-22T08:38:17;7.25;;;3.92;;
53775;SDS011;44276;49.534;6.378;2022-07-22T08:40:45;7.63;;;4.32;;
53775;SDS011;44276;49.534;6.378;2022-07-22T08:43:14;7.20;;;3.83;;
53775;SDS011;44276;49.534;6.378;2022-07-22T08:45:42;7.93;;;4.10;;
53775;SDS011;44276;49.534;6.378;2022-07-22T08:48:12;9.23;;;3.95;;
53775;SDS011;44276;49.534;6.378;2022-07-22T08:50:40;5.97;;;3.08;;
53775;SDS011;44276;49.534;6.378;2022-07-22T08:53:09;5.38;;;3.72;;
53775;SDS011;44276;49.534;6.378;2022-07-22T08:55:42;7.22;;;3.40;;
53775;SDS011;44276;49.534;6.378;2022-07-22T08:58:11;6.00;;;4.03;;
53775;SDS011;44276;49.534;6.378;2022-07-22T09:00:40;5.07;;;3.28;;
53775;SDS011;44276;49.534;6.378;2022-07-22T09:03:20;4.97;;;3.30;;
53775;SDS011;44276;49.534;6.378;2022-07-22T09:05:54;4.80;;;3.15;;
53775;SDS011;44276;49.534;6.378;2022-07-22T09:08:22;8.10;;;3.97;;
53775;SDS011;44276;49.534;6.378;2022-07-22T09:10:50;4.00;;;3.60;;
53775;SDS011;44276;49.534;6.378;2022-07-22T09:13:19;4.95;;;3.63;;
53775;SDS011;44276;49.534;6.378;2022-07-22T09:15:47;4.28;;;3.42;;
53775;SDS011;44276;49.534;6.378;2022-07-22T09:18:17;4.45;;;3.65;;
53775;SDS011;44276;49.534;6.378;2022-07-22T09:20:47;6.82;;;3.63;;
53775;SDS011;44276;49.534;6.378;2022-07-22T09:23:16;5.72;;;3.85;;
53775;SDS011;44276;49.534;6.378;2022-07-22T09:25:48;4.32;;;3.80;;
53775;SDS011;44276;49.534;6.378;2022-07-22T09:28:17;6.50;;;4.15;;
53775;SDS011;44276;49.534;6.378;2022-07-22T09:30:51;4.93;;;3.63;;
53775;SDS011;44276;49.534;6.378;2022-07-22T09:33:25;4.40;;;3.47;;
53775;SDS011;44276;49.534;6.378;2022-07-22T09:36:00;7.75;;;3.47;;
53775;SDS011;44276;49.534;6.378;2022-07-22T09:38:30;5.13;;;3.55;;
53775;SDS011;44276;49.534;6.378;2022-07-22T09:41:01;7.03;;;4.50;;
53775;SDS011;44276;49.534;6.378;2022-07-22T09:43:32;4.97;;;3.63;;
53775;SDS011;44276;49.534;6.378;2022-07-22T09:46:03;8.85;;;3.40;;
53775;SDS011;44276;49.534;6.378;2022-07-22T09:48:33;5.18;;;3.22;;
53775;SDS011;44276;49.534;6.378;2022-07-22T09:51:01;3.88;;;3.47;;
53775;SDS011;44276;49.534;6.378;2022-07-22T09:53:31;4.10;;;3.22;;
53775;SDS011;44276;49.534;6.378;2022-07-22T09:56:01;5.90;;;4.03;;
53775;SDS011;44276;49.534;6.378;2022-07-22T09:58:32;7.18;;;3.50;;
53775;SDS011;44276;49.534;6.378;2022-07-22T10:01:02;6.03;;;3.20;;
53775;SDS011;44276;49.534;6.378;2022-07-22T10:03:35;5.32;;;3.67;;
53775;SDS011;44276;49.534;6.378;2022-07-22T10:06:05;3.55;;;3.17;;
53775;SDS011;44276;49.534;6.378;2022-07-22T10:08:36;5.25;;;3.92;;
53775;SDS011;44276;49.534;6.378;2022-07-22T10:11:07;4.85;;;3.30;;
53775;SDS011;44276;49.534;6.378;2022-07-22T10:13:36;5.63;;;3.58;;
53775;SDS011;44276;49.534;6.378;2022-07-22T10:16:07;5.63;;;3.67;;
53775;SDS011;44276;49.534;6.378;2022-07-22T10:18:37;7.05;;;3.65;;
53775;SDS011;44276;49.534;6.378;2022-07-22T10:21:07;4.72;;;3.40;;
53775;SDS011;44276;49.534;6.378;2022-07-22T10:24:05;5.78;;;3.72;;
53775;SDS011;44276;49.534;6.378;2022-07-22T10:26:45;4.18;;;3.60;;
53775;SDS011;44276;49.534;6.378;2022-07-22T10:29:28;4.05;;;3.38;;
53775;SDS011;44276;49.534;6.378;2022-07-22T10:37:54;6.68;;;4.10;;
53775;SDS011;44276;49.534;6.378;2022-07-22T10:40:27;3.92;;;3.55;;
53775;SDS011;44276;49.534;6.378;2022-07-22T10:45:46;4.30;;;3.63;;
53775;SDS011;44276;49.534;6.378;2022-07-22T10:48:21;6.55;;;3.75;;
53775;SDS011;44276;49.534;6.378;2022-07-22T10:53:39;3.85;;;3.20;;
53775;SDS011;44276;49.534;6.378;2022-07-22T10:56:17;4.75;;;3.15;;
53775;SDS011;44276;49.534;6.378;2022-07-22T10:58:54;5.85;;;3.90;;
53775;SDS011;44276;49.534;6.378;2022-07-22T11:01:35;4.25;;;3.25;;
53775;SDS011;44276;49.534;6.378;2022-07-22T11:04:08;7.85;;;3.75;;
53775;SDS011;44276;49.534;6.378;2022-07-22T11:06:46;5.40;;;4.07;;
53775;SDS011;44276;49.534;6.378;2022-07-22T11:09:16;4.40;;;3.72;;
53775;SDS011;44276;49.534;6.378;2022-07-22T11:11:48;8.68;;;5.03;;
53775;SDS011;44276;49.534;6.378;2022-07-22T11:14:19;7.72;;;3.92;;
53775;SDS011;44276;49.534;6.378;2022-07-22T11:16:54;6.32;;;4.05;;
53775;SDS011;44276;49.534;6.378;2022-07-22T11:19:25;7.47;;;3.85;;
53775;SDS011;44276;49.534;6.378;2022-07-22T11:21:58;4.85;;;3.67;;
53775;SDS011;44276;49.534;6.378;2022-07-22T11:24:31;6.85;;;4.57;;
53775;SDS011;44276;49.534;6.378;2022-07-22T11:27:01;6.28;;;3.38;;
53775;SDS011;44276;49.534;6.378;2022-07-22T11:29:32;7.60;;;4.28;;
53775;SDS011;44276;49.534;6.378;2022-07-22T11:32:04;4.30;;;3.63;;
53775;SDS011;44276;49.534;6.378;2022-07-22T11:34:35;22.05;;;5.00;;
53775;SDS011;44276;49.534;6.378;2022-07-22T11:37:10;6.68;;;3.65;;
53775;SDS011;44276;49.534;6.378;2022-07-22T11:39:38;5.80;;;3.95;;
53775;SDS011;44276;49.534;6.378;2022-07-22T11:42:07;4.90;;;3.47;;
53775;SDS011;44276;49.534;6.378;2022-07-22T11:44:36;6.57;;;3.53;;
53775;SDS011;44276;49.534;6.378;2022-07-22T11:47:06;4.20;;;3.80;;
53775;SDS011;44276;49.534;6.378;2022-07-22T11:49:36;8.57;;;3.78;;
53775;SDS011;44276;49.534;6.378;2022-07-22T11:52:07;4.80;;;3.47;;
53775;SDS011;44276;49.534;6.378;2022-07-22T11:54:39;8.40;;;3.42;;
53775;SDS011;44276;49.534;6.378;2022-07-22T11:57:09;6.97;;;3.90;;
53775;SDS011;44276;49.534;6.378;2022-07-22T11:59:39;9.57;;;3.83;;
53775;SDS011;44276;49.534;6.378;2022-07-22T12:02:07;4.47;;;3.58;;
53775;SDS011;44276;49.534;6.378;2022-07-22T12:04:40;5.55;;;3.70;;
53775;SDS011;44276;49.534;6.378;2022-07-22T12:07:12;4.68;;;3.80;;
53775;SDS011;44276;49.534;6.378;2022-07-22T12:09:41;7.05;;;4.13;;
53775;SDS011;44276;49.534;6.378;2022-07-22T12:12:10;8.07;;;3.75;;
53775;SDS011;44276;49.534;6.378;2022-07-22T12:14:44;7.95;;;3.58;;
53775;SDS011;44276;49.534;6.378;2022-07-22T12:17:14;4.80;;;3.30;;
53775;SDS011;44276;49.534;6.378;2022-07-22T12:19:43;9.43;;;4.05;;
53775;SDS011;44276;49.534;6.378;2022-07-22T12:22:18;8.98;;;4.18;;
53775;SDS011;44276;49.534;6.378;2022-07-22T12:24:57;5.43;;;3.60;;
53775;SDS011;44276;49.534;6.378;2022-07-22T12:27:28;4.55;;;3.05;;
53775;SDS011;44276;49.534;6.378;2022-07-22T12:29:57;4.68;;;3.60;;
53775;SDS011;44276;49.534;6.378;2022-07-22T12:32:25;4.07;;;3.50;;
53775;SDS011;44276;49.534;6.378;2022-07-22T12:34:56;5.97;;;3.83;;
53775;SDS011;44276;49.534;6.378;2022-07-22T12:37:30;5.20;;;3.63;;
53775;SDS011;44276;49.534;6.378;2022-07-22T12:40:02;5.50;;;3.33;;
53775;SDS011;44276;49.534;6.378;2022-07-22T12:42:33;6.50;;;3.65;;
53775;SDS011;44276;49.534;6.378;2022-07-22T12:45:05;5.18;;;3.45;;
53775;SDS011;44276;49.534;6.378;2022-07-22T12:47:43;7.28;;;3.40;;
53775;SDS011;44276;49.534;6.378;2022-07-22T12:50:15;8.48;;;3.50;;
53775;SDS011;44276;49.534;6.378;2022-07-22T12:52:47;4.53;;;3.00;;
53775;SDS011;44276;49.534;6.378;2022-07-22T12:55:36;6.03;;;3.15;;
53775;SDS011;44276;49.534;6.378;2022-07-22T12:58:07;5.38;;;3.60;;
53775;SDS011;44276;49.534;6.378;2022-07-22T13:00:38;4.85;;;3.45;;
53775;SDS011;44276;49.534;6.378;2022-07-22T13:03:09;5.60;;;3.40;;
53775;SDS011;44276;49.534;6.378;2022-07-22T13:05:37;4.22;;;3.13;;
53775;SDS011;44276;49.534;6.378;2022-07-22T13:08:08;4.63;;;3.17;;
53775;SDS011;44276;49.534;6.378;2022-07-22T13:10:38;3.40;;;2.95;;
53775;SDS011;44276;49.534;6.378;2022-07-22T13:13:07;5.32;;;3.35;;
53775;SDS011;44276;49.534;6.378;2022-07-22T13:15:35;3.60;;;3.10;;
53775;SDS011;44276;49.534;6.378;2022-07-22T13:18:05;5.82;;;3.50;;
53775;SDS011;44276;49.534;6.378;2022-07-22T13:20:33;5.53;;;3.88;;
53775;SDS011;44276;49.534;6.378;2022-07-22T13:23:02;7.00;;;3.72;;
53775;SDS011;44276;49.534;6.378;2022-07-22T13:25:32;6.60;;;3.25;;
53775;SDS011;44276;49.534;6.378;2022-07-22T13:28:02;6.63;;;3.40;;
53775;SDS011;44276;49.534;6.378;2022-07-22T13:30:31;5.10;;;3.58;;
53775;SDS011;44276;49.534;6.378;2022-07-22T13:32:59;5.18;;;3.38;;
53775;SDS011;44276;49.534;6.378;2022-07-22T13:35:28;4.90;;;3.22;;
53775;SDS011;44276;49.534;6.378;2022-07-22T13:37:56;6.18;;;3.40;;
53775;SDS011;44276;49.534;6.378;2022-07-22T13:40:25;6.70;;;3.17;;
53775;SDS011;44276;49.534;6.378;2022-07-22T13:42:55;5.05;;;3.85;;
53775;SDS011;44276;49.534;6.378;2022-07-22T13:45:24;5.03;;;3.13;;
53775;SDS011;44276;49.534;6.378;2022-07-22T13:47:52;5.63;;;2.92;;
53775;SDS011;44276;49.534;6.378;2022-07-22T13:50:21;6.35;;;3.72;;
53775;SDS011;44276;49.534;6.378;2022-07-22T13:52:49;7.25;;;3.90;;
53775;SDS011;44276;49.534;6.378;2022-07-22T13:55:19;4.35;;;3.03;;
53775;SDS011;44276;49.534;6.378;2022-07-22T13:57:48;6.10;;;3.28;;
53775;SDS011;44276;49.534;6.378;2022-07-22T14:00:18;10.15;;;4.00;;
53775;SDS011;44276;49.534;6.378;2022-07-22T14:02:46;4.20;;;3.47;;
53775;SDS011;44276;49.534;6.378;2022-07-22T14:05:14;4.30;;;2.88;;
53775;SDS011;44276;49.534;6.378;2022-07-22T14:07:43;8.20;;;4.25;;
53775;SDS011;44276;49.534;6.378;2022-07-22T14:10:12;3.28;;;2.80;;
53775;SDS011;44276;49.534;6.378;2022-07-22T14:12:40;4.63;;;3.00;;
53775;SDS011;44276;49.534;6.378;2022-07-22T14:15:10;7.35;;;3.08;;
53775;SDS011;44276;49.534;6.378;2022-07-22T14:17:42;5.13;;;3.20;;
53775;SDS011;44276;49.534;6.378;2022-07-22T14:20:11;5.25;;;3.28;;
53775;SDS011;44276;49.534;6.378;2022-07-22T14:22:39;5.55;;;3.92;;
53775;SDS011;44276;49.534;6.378;2022-07-22T14:25:07;3.97;;;3.50;;
53775;SDS011;44276;49.534;6.378;2022-07-22T14:27:36;6.97;;;3.70;;
53775;SDS011;44276;49.534;6.378;2022-07-22T14:30:05;7.13;;;3.63;;
53775;SDS011;44276;49.534;6.378;2022-07-22T14:32:34;4.93;;;3.65;;
53775;SDS011;44276;49.534;6.378;2022-07-22T14:35:04;6.13;;;3.78;;
53775;SDS011;44276;49.534;6.378;2022-07-22T14:37:33;5.53;;;3.75;;
53775;SDS011;44276;49.534;6.378;2022-07-22T14:40:02;6.45;;;3.78;;
53775;SDS011;44276;49.534;6.378;2022-07-22T14:42:31;4.90;;;3.58;;
53775;SDS011;44276;49.534;6.378;2022-07-22T14:44:59;3.78;;;3.47;;
53775;SDS011;44276;49.534;6.378;2022-07-22T14:47:27;5.82;;;3.72;;
53775;SDS011;44276;49.534;6.378;2022-07-22T14:49:56;5.55;;;4.05;;
53775;SDS011;44276;49.534;6.378;2022-07-22T14:52:25;6.72;;;3.53;;
53775;SDS011;44276;49.534;6.378;2022-07-22T14:54:53;5.07;;;4.00;;
53775;SDS011;44276;49.534;6.378;2022-07-22T14:57:22;5.03;;;3.42;;
53775;SDS011;44276;49.534;6.378;2022-07-22T14:59:52;7.90;;;3.75;;
53775;SDS011;44276;49.534;6.378;2022-07-22T15:02:20;4.75;;;3.60;;